Terminal Aerodrome Forecast
Issued by NWS Grand Forks, ND

Home | Current Version | Previous Version | Graphics & Text | Print | Product List | Glossary On
Versions: 1 2 3 4 5 6 7 8 9 10 11 12 13 14 15 16 17 18 19 20 21 22 23 24
962
FTUS43 KFGF 201722
TAFGFK
TAF
KGFK 201722Z 2018/2118 22011KT P6SM BKN150
     FM202100 25013G18KT P6SM BKN150
     FM202300 28017G25KT P6SM SCT150
     FM210200 30023G32KT P6SM BKN045
     FM211500 33017G26KT P6SM SCT070=

USA.gov is the U.S. government's official web portal to all federal, state and local government web resources and services.